createdAt,value
2024-05-09T00:00:48.126Z,944.5
2024-05-09T00:01:48.500Z,944.49
2024-05-09T00:02:49.230Z,944.49
2024-05-09T00:03:49.966Z,944.44
2024-05-09T00:04:50.351Z,944.45
2024-05-09T00:05:51.175Z,944.41
2024-05-09T00:06:51.817Z,944.44
2024-05-09T00:07:52.778Z,944.41
2024-05-09T00:08:53.417Z,944.45
2024-05-09T00:09:53.585Z,944.4
2024-05-09T00:11:57.510Z,944.36
2024-05-09T00:12:58.439Z,944.35
2024-05-09T00:13:59.500Z,944.36
2024-05-09T00:15:00.151Z,944.36
2024-05-09T00:16:00.496Z,944.34
2024-05-09T00:17:01.460Z,944.32
2024-05-09T00:18:02.984Z,944.35
2024-05-09T00:19:02.815Z,944.32
2024-05-09T00:20:07.005Z,944.29
2024-05-09T00:21:18.511Z,944.28
2024-05-09T00:22:19.021Z,944.28
2024-05-09T00:23:19.828Z,944.34
2024-05-09T00:24:20.430Z,944.31
2024-05-09T00:25:20.778Z,944.3
2024-05-09T00:26:21.089Z,944.32
2024-05-09T00:27:21.664Z,944.33
2024-05-09T00:28:21.784Z,944.28
2024-05-09T00:29:22.740Z,944.32
2024-05-09T00:30:28.425Z,944.3
2024-05-09T00:31:23.952Z,944.27
2024-05-09T00:32:24.527Z,944.29
2024-05-09T00:33:24.931Z,944.28
2024-05-09T00:34:24.973Z,944.29
2024-05-09T00:35:26.040Z,944.26
2024-05-09T00:36:26.284Z,944.28
2024-05-09T00:37:27.180Z,944.24
2024-05-09T00:38:27.890Z,944.24
2024-05-09T00:39:28.104Z,944.24
2024-05-09T00:40:31.197Z,944.2
2024-05-09T00:41:29.079Z,944.22
2024-05-09T00:42:29.634Z,944.2
2024-05-09T00:43:30.375Z,944.22
2024-05-09T00:44:31.419Z,944.21
2024-05-09T00:45:32.221Z,944.22
2024-05-09T00:46:33.263Z,944.21
2024-05-09T00:47:34.422Z,944.22
2024-05-09T00:48:34.781Z,944.24
2024-05-09T00:49:35.278Z,944.24
2024-05-09T00:50:36.830Z,944.21
2024-05-09T00:51:36.850Z,944.19
2024-05-09T00:52:37.760Z,944.17
2024-05-09T00:53:38.132Z,944.16
2024-05-09T00:54:38.440Z,944.14
2024-05-09T00:55:39.239Z,944.11
2024-05-09T00:56:39.596Z,944.07
2024-05-09T00:57:40.170Z,944.05
2024-05-09T00:58:41.082Z,944.08
2024-05-09T00:59:42.022Z,944.04
2024-05-09T01:00:43.007Z,944.07
2024-05-09T01:01:44.229Z,944.07
2024-05-09T01:02:44.186Z,944.07
2024-05-09T01:03:46.032Z,944.05
2024-05-09T01:04:45.742Z,944.05
2024-05-09T01:05:45.971Z,944.06
2024-05-09T01:06:46.499Z,944.07
2024-05-09T01:07:47.040Z,944.07
2024-05-09T01:08:47.834Z,944.04
2024-05-09T01:09:48.912Z,944.06
2024-05-09T01:10:49.854Z,944.03
2024-05-09T01:11:50.640Z,944.03
2024-05-09T01:12:51.478Z,944.04
2024-05-09T01:13:52.277Z,944.01
2024-05-09T01:14:53.235Z,944
2024-05-09T01:15:53.991Z,944.03
2024-05-09T01:16:54.162Z,944.03
2024-05-09T01:17:54.497Z,944
2024-05-09T01:18:55.365Z,944.03
2024-05-09T01:19:55.757Z,944.01
2024-05-09T01:20:56.741Z,944
2024-05-09T01:21:57.009Z,943.97
2024-05-09T01:22:58.014Z,944
2024-05-09T01:23:59.029Z,944.01
2024-05-09T01:24:59.218Z,944.01
2024-05-09T01:26:00.218Z,944.03
2024-05-09T01:27:00.340Z,944.01
2024-05-09T01:28:01.316Z,944.01
2024-05-09T01:29:01.941Z,943.99
2024-05-09T01:30:04.051Z,944
2024-05-09T01:31:02.799Z,944.01
2024-05-09T01:32:03.986Z,944.04
2024-05-09T01:33:04.926Z,944.03
2024-05-09T01:34:04.514Z,944.05
2024-05-09T01:35:05.487Z,944
2024-05-09T01:36:06.239Z,944.03
2024-05-09T01:37:07.262Z,944.02
2024-05-09T01:38:08.034Z,944.06
2024-05-09T01:39:08.306Z,944.07
2024-05-09T01:40:12.116Z,944.05
2024-05-09T01:41:10.092Z,944.06
2024-05-09T01:42:10.988Z,944.07
2024-05-09T01:43:11.970Z,944.06
2024-05-09T01:44:12.077Z,944.05
2024-05-09T01:45:12.470Z,944.02
2024-05-09T01:46:13.025Z,944.07
2024-05-09T01:47:13.846Z,944.02
2024-05-09T01:48:14.725Z,944.01
2024-05-09T01:49:15.772Z,944.03
2024-05-09T01:50:16.609Z,944.04
2024-05-09T01:51:16.717Z,944.01
2024-05-09T01:52:17.466Z,944.05
2024-05-09T01:53:18.032Z,944.09
2024-05-09T01:54:18.409Z,944.09
2024-05-09T01:55:19.138Z,944.05
2024-05-09T01:56:19.907Z,944.07
2024-05-09T01:57:20.168Z,944.05
2024-05-09T01:58:20.755Z,944.04
2024-05-09T01:59:21.311Z,944.03
2024-05-09T02:00:26.213Z,944.04
2024-05-09T02:01:22.119Z,944.03
2024-05-09T02:02:23.126Z,944.02
2024-05-09T02:03:23.655Z,944.03
2024-05-09T02:04:23.937Z,944.01
2024-05-09T02:05:24.717Z,944.02
2024-05-09T02:06:25.557Z,944.05
2024-05-09T02:07:26.295Z,944.04
2024-05-09T02:08:27.318Z,944.05
2024-05-09T02:09:27.823Z,943.99
2024-05-09T02:10:31.996Z,944.03
2024-05-09T02:11:29.496Z,944.04
2024-05-09T02:12:30.261Z,944.01
2024-05-09T02:13:31.030Z,943.99
2024-05-09T02:14:31.814Z,943.99
2024-05-09T02:15:32.182Z,943.96
2024-05-09T02:16:32.327Z,943.96
2024-05-09T02:17:33.264Z,943.99
2024-05-09T02:18:33.514Z,943.95
2024-05-09T02:19:33.808Z,943.92
2024-05-09T02:20:36.103Z,943.97
2024-05-09T02:21:35.099Z,943.96
2024-05-09T02:22:35.737Z,943.92
2024-05-09T02:23:36.788Z,943.94
2024-05-09T02:24:37.084Z,943.93
2024-05-09T02:25:37.824Z,943.94
2024-05-09T02:26:37.951Z,943.93
2024-05-09T02:27:38.755Z,943.97
2024-05-09T02:28:39.477Z,943.99
2024-05-09T02:29:40.443Z,943.96
2024-05-09T02:30:42.274Z,943.99
2024-05-09T02:31:41.604Z,943.94
2024-05-09T02:32:42.223Z,943.93
2024-05-09T02:33:43.150Z,943.95
2024-05-09T02:34:43.469Z,943.95
2024-05-09T02:35:44.579Z,943.95
2024-05-09T02:36:45.421Z,943.92
2024-05-09T02:37:46.522Z,943.92
2024-05-09T02:38:46.691Z,943.9
2024-05-09T02:39:46.814Z,943.92
2024-05-09T02:40:47.853Z,943.91
2024-05-09T02:41:48.822Z,943.93
2024-05-09T02:42:49.420Z,943.93
2024-05-09T02:43:50.341Z,943.95
2024-05-09T02:44:51.187Z,943.93
2024-05-09T02:45:51.905Z,943.93
2024-05-09T02:46:52.068Z,943.94
2024-05-09T02:47:52.658Z,943.93
2024-05-09T02:48:52.861Z,943.91
2024-05-09T02:49:53.058Z,943.88
2024-05-09T02:50:53.895Z,943.91
2024-05-09T02:51:54.091Z,943.92
2024-05-09T02:52:54.970Z,943.91
2024-05-09T02:53:55.678Z,943.88
2024-05-09T02:54:56.407Z,943.89
2024-05-09T02:55:57.472Z,943.91
2024-05-09T02:56:57.790Z,943.91
2024-05-09T02:57:58.530Z,943.89
2024-05-09T02:58:59.019Z,943.89
2024-05-09T02:59:59.511Z,943.88
2024-05-09T03:01:00.348Z,943.85
2024-05-09T03:02:01.393Z,943.9
2024-05-09T03:03:02.234Z,943.89
2024-05-09T03:04:02.407Z,943.9
2024-05-09T03:05:03.115Z,943.9
2024-05-09T03:06:03.173Z,943.92
2024-05-09T03:07:04.084Z,943.89
2024-05-09T03:08:05.136Z,943.92
2024-05-09T03:09:05.345Z,943.87
2024-05-09T03:10:11.856Z,943.89
2024-05-09T03:11:06.628Z,943.88
2024-05-09T03:12:07.475Z,943.9
2024-05-09T03:13:08.440Z,943.92
2024-05-09T03:14:09.116Z,943.9
2024-05-09T03:15:09.313Z,943.95
2024-05-09T03:16:10.036Z,943.98
2024-05-09T03:17:11.149Z,943.96
2024-05-09T03:18:11.864Z,943.96
2024-05-09T03:19:12.478Z,943.94
2024-05-09T03:20:17.361Z,943.91
2024-05-09T03:21:13.209Z,943.9
2024-05-09T03:22:13.944Z,943.92
2024-05-09T03:23:14.624Z,943.94
2024-05-09T03:24:15.082Z,943.92
2024-05-09T03:25:15.435Z,943.95
2024-05-09T03:26:16.368Z,943.95
2024-05-09T03:27:16.519Z,943.92
2024-05-09T03:28:17.446Z,943.92
2024-05-09T03:29:18.381Z,943.92
2024-05-09T03:30:22.164Z,943.9
2024-05-09T03:31:19.582Z,943.92
2024-05-09T03:32:20.196Z,943.9
2024-05-09T03:33:21.166Z,943.92
2024-05-09T03:34:20.839Z,943.92
2024-05-09T03:35:21.789Z,943.95
2024-05-09T03:36:21.997Z,943.96
2024-05-09T03:37:22.898Z,943.96
2024-05-09T03:38:23.648Z,943.95
2024-05-09T03:39:23.795Z,943.94
2024-05-09T03:40:26.667Z,943.93
2024-05-09T03:41:25.607Z,943.92
2024-05-09T03:42:26.072Z,943.88
2024-05-09T03:43:26.264Z,943.88
2024-05-09T03:44:26.457Z,943.91
2024-05-09T03:45:26.801Z,943.93
2024-05-09T03:46:27.006Z,943.89
2024-05-09T03:47:27.566Z,943.88
2024-05-09T03:48:27.848Z,943.88
2024-05-09T03:49:28.177Z,943.88
2024-05-09T03:50:30.613Z,943.9
2024-05-09T03:51:28.507Z,943.92
2024-05-09T03:52:28.965Z,943.95
2024-05-09T03:53:30.066Z,943.91
2024-05-09T03:54:30.449Z,943.97
2024-05-09T03:55:31.366Z,943.95
2024-05-09T03:56:31.432Z,943.98
2024-05-09T03:57:31.552Z,943.95
2024-05-09T03:58:32.507Z,943.95
2024-05-09T03:59:33.088Z,943.97
2024-05-09T04:00:35.758Z,943.96
2024-05-09T04:01:35.030Z,943.95
2024-05-09T04:02:35.484Z,944.01
2024-05-09T04:03:36.408Z,944
2024-05-09T04:04:36.685Z,943.99
2024-05-09T04:05:37.068Z,944.01
2024-05-09T04:06:37.232Z,944.04
2024-05-09T04:07:38.155Z,944.04
2024-05-09T04:08:38.525Z,944.06
2024-05-09T04:09:38.702Z,944.06
2024-05-09T04:10:39.290Z,944.05
2024-05-09T04:11:39.693Z,944.07
2024-05-09T04:12:40.305Z,944.06
2024-05-09T04:13:40.975Z,944.03
2024-05-09T04:14:41.290Z,944.05
2024-05-09T04:15:42.256Z,944.05
2024-05-09T04:16:42.942Z,944.03
2024-05-09T04:17:43.788Z,944.02
2024-05-09T04:18:44.069Z,944.05
2024-05-09T04:19:44.376Z,944.03
2024-05-09T04:20:44.568Z,944.03
2024-05-09T04:21:44.871Z,944.05
2024-05-09T04:22:45.406Z,944.06
2024-05-09T04:23:46.377Z,944.05
2024-05-09T04:24:47.336Z,944.04
2024-05-09T04:25:47.973Z,944.04
2024-05-09T04:26:48.289Z,944.1
2024-05-09T04:27:49.149Z,944.08
2024-05-09T04:28:49.370Z,944.1
2024-05-09T04:29:50.294Z,944.09
2024-05-09T04:30:50.845Z,944.12
2024-05-09T04:31:51.536Z,944.12
2024-05-09T04:32:52.260Z,944.14
2024-05-09T04:33:53.045Z,944.15
2024-05-09T04:34:53.123Z,944.17
2024-05-09T04:35:53.252Z,944.16
2024-05-09T04:36:54.196Z,944.16
2024-05-09T04:37:54.561Z,944.2
2024-05-09T04:38:54.972Z,944.17
2024-05-09T04:39:55.711Z,944.18
2024-05-09T04:40:56.759Z,944.15
2024-05-09T04:41:56.865Z,944.13
2024-05-09T04:42:57.603Z,944.13
2024-05-09T04:43:58.474Z,944.13
2024-05-09T04:44:58.891Z,944.13
2024-05-09T04:45:59.678Z,944.17
2024-05-09T04:47:00.728Z,944.14
2024-05-09T04:48:01.776Z,944.14
2024-05-09T04:49:02.414Z,944.15
2024-05-09T04:50:03.562Z,944.16
2024-05-09T04:51:03.746Z,944.16
2024-05-09T04:52:04.032Z,944.13
2024-05-09T04:53:05.417Z,944.15
2024-05-09T04:54:06.856Z,944.13
2024-05-09T04:55:06.542Z,944.16
2024-05-09T04:56:07.074Z,944.1
2024-05-09T04:57:07.403Z,944.16
2024-05-09T04:58:07.540Z,944.14
2024-05-09T04:59:07.815Z,944.19
2024-05-09T05:00:14.290Z,944.2
2024-05-09T05:01:08.944Z,944.19
2024-05-09T05:02:10.033Z,944.21
2024-05-09T05:03:12.104Z,944.21
2024-05-09T05:04:10.672Z,944.18
2024-05-09T05:05:12.134Z,944.21
2024-05-09T05:06:12.530Z,944.14
2024-05-09T05:07:13.230Z,944.14
2024-05-09T05:08:14.399Z,944.12
2024-05-09T05:09:14.823Z,944.17
2024-05-09T05:10:21.248Z,944.12
2024-05-09T05:11:16.023Z,944.15
2024-05-09T05:12:16.765Z,944.15
2024-05-09T05:13:18.555Z,944.15
2024-05-09T05:14:18.475Z,944.16
2024-05-09T05:15:19.361Z,944.13
2024-05-09T05:16:20.342Z,944.13
2024-05-09T05:17:21.036Z,944.15
2024-05-09T05:18:22.055Z,944.15
2024-05-09T05:19:22.689Z,944.16
2024-05-09T05:20:27.137Z,944.18
2024-05-09T05:21:24.120Z,944.18
2024-05-09T05:22:24.564Z,944.19
2024-05-09T05:23:25.612Z,944.2
2024-05-09T05:24:25.656Z,944.2
2024-05-09T05:25:26.737Z,944.22
2024-05-09T05:26:27.112Z,944.22
2024-05-09T05:27:27.648Z,944.25
2024-05-09T05:28:27.938Z,944.24
2024-05-09T05:29:28.041Z,944.28
2024-05-09T05:30:32.514Z,944.26
2024-05-09T05:31:29.679Z,944.3
2024-05-09T05:32:30.089Z,944.29
2024-05-09T05:33:31.072Z,944.29
2024-05-09T05:34:32.023Z,944.3
2024-05-09T05:35:32.317Z,944.36
2024-05-09T05:36:32.565Z,944.33
2024-05-09T05:37:33.504Z,944.34
2024-05-09T05:38:34.129Z,944.34
2024-05-09T05:39:34.483Z,944.34
2024-05-09T05:40:36.024Z,944.33
2024-05-09T05:41:35.503Z,944.34
2024-05-09T05:42:36.062Z,944.33
2024-05-09T05:43:37.037Z,944.33
2024-05-09T05:44:38.048Z,944.37
2024-05-09T05:45:39.001Z,944.35
2024-05-09T05:46:39.386Z,944.38
2024-05-09T05:47:40.471Z,944.39
2024-05-09T05:48:40.820Z,944.37
2024-05-09T05:49:41.102Z,944.35
2024-05-09T05:50:42.281Z,944.35
2024-05-09T05:51:42.462Z,944.38
2024-05-09T05:52:43.382Z,944.39
2024-05-09T05:53:43.631Z,944.38
2024-05-09T05:54:44.545Z,944.37
2024-05-09T05:55:45.515Z,944.41
2024-05-09T05:56:46.104Z,944.44
2024-05-09T05:57:46.862Z,944.44
2024-05-09T05:58:47.725Z,944.44
2024-05-09T05:59:48.632Z,944.44
2024-05-09T06:00:49.182Z,944.44
2024-05-09T06:01:49.532Z,944.48
2024-05-09T06:02:50.289Z,944.48
2024-05-09T06:03:50.514Z,944.48
2024-05-09T06:04:51.027Z,944.51
2024-05-09T06:05:51.667Z,944.51
2024-05-09T06:06:52.366Z,944.51
2024-05-09T06:07:53.084Z,944.46
2024-05-09T06:08:53.454Z,944.44
2024-05-09T06:09:53.561Z,944.46
2024-05-09T06:10:54.270Z,944.47
2024-05-09T06:11:55.127Z,944.42
2024-05-09T06:12:55.713Z,944.42
2024-05-09T06:13:56.597Z,944.42
2024-05-09T06:14:56.803Z,944.42
2024-05-09T06:15:56.983Z,944.41
2024-05-09T06:16:58.273Z,944.41
2024-05-09T06:17:59.309Z,944.45
2024-05-09T06:18:59.541Z,944.45
2024-05-09T06:19:59.447Z,944.46
2024-05-09T06:20:59.783Z,944.49
2024-05-09T06:22:00.610Z,944.49
2024-05-09T06:23:01.526Z,944.47
2024-05-09T06:24:03.839Z,944.49
2024-05-09T06:25:02.904Z,944.47
2024-05-09T06:26:03.811Z,944.47
2024-05-09T06:27:04.046Z,944.48
2024-05-09T06:28:04.234Z,944.45
2024-05-09T06:29:04.596Z,944.47
2024-05-09T06:30:05.145Z,944.46
2024-05-09T06:31:05.523Z,944.49
2024-05-09T06:32:06.437Z,944.47
2024-05-09T06:33:07.469Z,944.5
2024-05-09T06:34:08.013Z,944.52
2024-05-09T06:35:08.530Z,944.52
2024-05-09T06:36:08.696Z,944.49
2024-05-09T06:37:09.465Z,944.48
2024-05-09T06:38:10.330Z,944.47
2024-05-09T06:39:10.785Z,944.47
2024-05-09T06:40:12.505Z,944.48
2024-05-09T06:41:12.738Z,944.48
2024-05-09T06:42:13.534Z,944.51
2024-05-09T06:43:14.684Z,944.49
2024-05-09T06:44:14.994Z,944.5
2024-05-09T06:45:15.904Z,944.47
2024-05-09T06:46:16.413Z,944.51
2024-05-09T06:47:17.215Z,944.54
2024-05-09T06:48:17.706Z,944.51
2024-05-09T06:49:18.568Z,944.51
2024-05-09T06:50:23.280Z,944.57
2024-05-09T06:51:19.249Z,944.54
2024-05-09T06:52:20.022Z,944.55
2024-05-09T06:53:21.039Z,944.53
2024-05-09T06:54:21.396Z,944.59
2024-05-09T06:55:21.850Z,944.52
2024-05-09T06:56:22.933Z,944.55
2024-05-09T06:57:23.134Z,944.59
2024-05-09T06:58:23.966Z,944.58
2024-05-09T06:59:25.022Z,944.56
2024-05-09T07:00:30.360Z,944.61
2024-05-09T07:01:26.285Z,944.61
2024-05-09T07:02:27.105Z,944.56
2024-05-09T07:03:27.807Z,944.6
2024-05-09T07:04:28.591Z,944.58
2024-05-09T07:05:29.235Z,944.6
2024-05-09T07:06:29.643Z,944.59
2024-05-09T07:07:30.386Z,944.6
2024-05-09T07:08:30.712Z,944.59
2024-05-09T07:09:31.223Z,944.57
2024-05-09T07:11:32.474Z,944.61
2024-05-09T07:12:33.028Z,944.59
2024-05-09T07:13:33.069Z,944.59
2024-05-09T07:14:36.131Z,944.57
2024-05-09T07:15:34.896Z,944.56
2024-05-09T07:16:35.612Z,944.56
2024-05-09T07:17:36.042Z,944.51
2024-05-09T07:18:36.599Z,944.54
2024-05-09T07:19:37.086Z,944.55
2024-05-09T07:20:37.376Z,944.55
2024-05-09T07:21:37.837Z,944.51
2024-05-09T07:22:37.962Z,944.56
2024-05-09T07:23:38.846Z,944.52
2024-05-09T07:24:39.465Z,944.57
2024-05-09T07:25:40.162Z,944.56
2024-05-09T07:26:40.594Z,944.54
2024-05-09T07:27:41.468Z,944.53
2024-05-09T07:28:42.028Z,944.52
2024-05-09T07:29:43.152Z,944.54
2024-05-09T07:30:43.421Z,944.54
2024-05-09T07:31:44.403Z,944.53
2024-05-09T07:32:45.583Z,944.52
2024-05-09T07:33:46.111Z,944.55
2024-05-09T07:34:46.293Z,944.52
2024-05-09T07:35:47.328Z,944.54
2024-05-09T07:36:47.953Z,944.53
2024-05-09T07:37:48.661Z,944.55
2024-05-09T07:38:49.645Z,944.55
2024-05-09T07:39:49.847Z,944.56
2024-05-09T07:40:50.369Z,944.52
2024-05-09T07:41:50.523Z,944.56
2024-05-09T07:42:51.252Z,944.49
2024-05-09T07:43:51.981Z,944.52
2024-05-09T07:44:52.160Z,944.54
2024-05-09T07:48:56.776Z,944.53
2024-05-09T07:51:48.211Z,944.53
2024-05-09T07:53:57.223Z,944.52
2024-05-09T07:54:55.926Z,944.5
2024-05-09T07:55:57.127Z,944.51
2024-05-09T07:56:57.981Z,944.49
2024-05-09T07:57:58.394Z,944.51
2024-05-09T07:58:58.637Z,944.49
2024-05-09T07:59:58.793Z,944.49
2024-05-09T08:00:59.810Z,944.47
2024-05-09T08:02:00.851Z,944.52
2024-05-09T08:03:01.689Z,944.53
2024-05-09T08:04:01.964Z,944.55
2024-05-09T08:05:02.959Z,944.51
2024-05-09T08:06:03.141Z,944.54
2024-05-09T08:07:03.580Z,944.54
2024-05-09T08:08:04.021Z,944.55
2024-05-09T08:09:07.826Z,944.55
2024-05-09T08:11:05.513Z,944.56
2024-05-09T08:12:06.367Z,944.53
2024-05-09T08:13:06.617Z,944.54
2024-05-09T08:14:06.937Z,944.52
2024-05-09T08:15:07.618Z,944.54
2024-05-09T08:16:08.397Z,944.49
2024-05-09T08:17:09.210Z,944.49
2024-05-09T08:18:09.880Z,944.52
2024-05-09T08:19:10.526Z,944.54
2024-05-09T08:20:11.439Z,944.52
2024-05-09T08:21:11.715Z,944.5
2024-05-09T08:22:12.628Z,944.51
2024-05-09T08:23:13.512Z,944.54
2024-05-09T08:24:14.283Z,944.52
2024-05-09T08:25:15.291Z,944.53
2024-05-09T08:26:15.590Z,944.51
2024-05-09T08:27:16.328Z,944.53
2024-05-09T08:28:17.445Z,944.51
2024-05-09T08:29:17.579Z,944.51
2024-05-09T08:30:21.710Z,944.48
2024-05-09T08:31:18.531Z,944.49
2024-05-09T08:32:19.008Z,944.49
2024-05-09T08:33:20.137Z,944.46
2024-05-09T08:34:20.352Z,944.52
2024-05-09T08:35:20.495Z,944.48
2024-05-09T08:36:21.543Z,944.45
2024-05-09T08:37:24.668Z,944.46
2024-05-09T08:38:23.028Z,944.44
2024-05-09T08:39:23.515Z,944.45
2024-05-09T08:40:28.073Z,944.45
2024-05-09T08:41:24.499Z,944.43
2024-05-09T08:42:25.027Z,944.43
2024-05-09T08:43:25.650Z,944.41
2024-05-09T08:44:26.706Z,944.43
2024-05-09T08:45:27.602Z,944.47
2024-05-09T08:46:28.246Z,944.41
2024-05-09T08:47:28.650Z,944.41
2024-05-09T08:48:29.649Z,944.44
2024-05-09T08:49:30.158Z,944.44
2024-05-09T08:50:35.831Z,944.37
2024-05-09T08:51:31.602Z,944.43
2024-05-09T08:52:32.471Z,944.44
2024-05-09T08:53:33.220Z,944.41
2024-05-09T08:54:33.840Z,944.43
2024-05-09T08:55:35.159Z,944.43
2024-05-09T08:56:35.107Z,944.48
2024-05-09T08:57:35.764Z,944.46
2024-05-09T08:58:36.064Z,944.48
2024-05-09T08:59:36.580Z,944.53
2024-05-09T09:00:37.838Z,944.47
2024-05-09T09:01:39.334Z,944.37
2024-05-09T09:02:38.331Z,944.43
2024-05-09T09:03:39.545Z,944.45
2024-05-09T09:04:39.801Z,944.4
2024-05-09T09:05:41.013Z,944.39
2024-05-09T09:06:41.258Z,944.38
2024-05-09T09:07:41.380Z,944.4
2024-05-09T09:08:42.134Z,944.36
2024-05-09T09:09:42.947Z,944.42
2024-05-09T09:10:43.226Z,944.41
2024-05-09T09:11:43.776Z,944.37
2024-05-09T09:12:43.984Z,944.4
2024-05-09T09:13:44.311Z,944.39
2024-05-09T09:14:45.258Z,944.38
2024-05-09T09:15:45.975Z,944.42
2024-05-09T09:16:47.040Z,944.35
2024-05-09T09:17:48.009Z,944.38
2024-05-09T09:18:48.267Z,944.42
2024-05-09T09:19:48.709Z,944.38
2024-05-09T09:20:49.256Z,944.4
2024-05-09T09:21:49.803Z,944.4
2024-05-09T09:22:50.763Z,944.44
2024-05-09T09:23:51.534Z,944.46
2024-05-09T09:24:52.412Z,944.4
2024-05-09T09:25:53.451Z,944.45
2024-05-09T09:26:53.721Z,944.44
2024-05-09T09:27:54.467Z,944.4
2024-05-09T09:28:54.923Z,944.46
2024-05-09T09:29:55.848Z,944.53
2024-05-09T09:30:56.119Z,944.55
2024-05-09T09:31:56.583Z,944.59
2024-05-09T09:32:57.583Z,944.53
2024-05-09T09:33:58.478Z,944.53
2024-05-09T09:34:58.597Z,944.61
2024-05-09T09:35:59.214Z,944.59
2024-05-09T09:36:59.783Z,944.59
2024-05-09T09:37:59.960Z,944.48
2024-05-09T09:39:00.239Z,944.5
2024-05-09T09:40:01.190Z,944.48
2024-05-09T09:41:02.136Z,944.49
2024-05-09T09:42:02.705Z,944.53
2024-05-09T09:43:02.943Z,944.53
2024-05-09T09:44:03.986Z,944.53
2024-05-09T09:45:05.431Z,944.51
2024-05-09T09:46:07.937Z,944.5
2024-05-09T09:47:06.073Z,944.54
2024-05-09T09:48:07.117Z,944.47
2024-05-09T09:49:07.502Z,944.55
2024-05-09T09:50:11.876Z,944.46
2024-05-09T09:51:08.020Z,944.46
2024-05-09T09:52:10.690Z,944.45
2024-05-09T09:53:08.772Z,944.48
2024-05-09T09:54:09.312Z,944.44
2024-05-09T09:55:10.311Z,944.44
2024-05-09T09:56:10.952Z,944.44
2024-05-09T09:57:11.053Z,944.45
2024-05-09T09:58:13.346Z,944.38
2024-05-09T09:59:12.714Z,944.4
2024-05-09T10:00:17.255Z,944.4
2024-05-09T10:01:13.995Z,944.44
2024-05-09T10:02:15.063Z,944.35
2024-05-09T10:03:16.095Z,944.41
2024-05-09T10:04:16.207Z,944.36
2024-05-09T10:05:16.819Z,944.35
2024-05-09T10:06:17.230Z,944.34
2024-05-09T10:07:18.222Z,944.34
2024-05-09T10:08:18.543Z,944.32
2024-05-09T10:09:19.602Z,944.32
2024-05-09T10:10:23.188Z,944.28
2024-05-09T10:11:20.634Z,944.27
2024-05-09T10:12:21.021Z,944.28
2024-05-09T10:13:21.462Z,944.3
2024-05-09T10:14:21.778Z,944.32
2024-05-09T10:15:22.551Z,944.29
2024-05-09T10:16:23.358Z,944.28
2024-05-09T10:17:23.684Z,944.28
2024-05-09T10:18:25.252Z,944.32
2024-05-09T10:19:24.711Z,944.35
2024-05-09T10:20:27.703Z,944.28
2024-05-09T10:21:25.737Z,944.26
2024-05-09T10:22:26.113Z,944.23
2024-05-09T10:23:26.083Z,944.27
2024-05-09T10:24:26.218Z,944.26
2024-05-09T10:25:26.551Z,944.3
2024-05-09T10:26:26.722Z,944.28
2024-05-09T10:27:26.921Z,944.24
2024-05-09T10:28:27.185Z,944.29
2024-05-09T10:29:27.495Z,944.24
2024-05-09T10:30:29.677Z,944.22
2024-05-09T10:31:29.496Z,944.23
2024-05-09T10:32:30.283Z,944.21
2024-05-09T10:33:30.796Z,944.23
2024-05-09T10:34:30.885Z,944.21
2024-05-09T10:35:31.048Z,944.18
2024-05-09T10:36:31.932Z,944.24
2024-05-09T10:37:32.284Z,944.21
2024-05-09T10:38:32.438Z,944.2
2024-05-09T10:39:33.463Z,944.15
2024-05-09T10:40:34.080Z,944.18
2024-05-09T10:41:34.209Z,944.16
2024-05-09T10:42:34.997Z,944.16
2024-05-09T10:43:35.306Z,944.13
2024-05-09T10:44:35.566Z,944.19
2024-05-09T10:45:36.531Z,944.16
2024-05-09T10:46:37.499Z,944.18
2024-05-09T10:47:37.775Z,944.14
2024-05-09T10:48:38.563Z,944.1
2024-05-09T10:49:39.260Z,944.14
2024-05-09T10:50:39.577Z,944.12
2024-05-09T10:51:39.896Z,944.11
2024-05-09T10:52:40.258Z,944.1
2024-05-09T10:53:40.807Z,944.09
2024-05-09T10:54:41.484Z,944.13
2024-05-09T10:55:42.151Z,944.12
2024-05-09T10:56:42.622Z,944.09
2024-05-09T10:57:43.598Z,944.05
2024-05-09T10:58:44.625Z,944.03
2024-05-09T10:59:44.753Z,944.03
2024-05-09T11:00:45.753Z,944.03
2024-05-09T11:01:46.647Z,944.04
2024-05-09T11:02:47.271Z,944.05
2024-05-09T11:03:47.771Z,944.02
2024-05-09T11:04:48.137Z,943.98
2024-05-09T11:05:48.528Z,944.07
2024-05-09T11:06:48.772Z,944.09
2024-05-09T11:07:48.993Z,944.07
2024-05-09T11:08:49.758Z,944.09
2024-05-09T11:09:50.811Z,944.07
2024-05-09T11:10:50.926Z,944
2024-05-09T11:11:51.313Z,944
2024-05-09T11:12:51.863Z,944.02
2024-05-09T11:13:52.964Z,944
2024-05-09T11:14:53.913Z,944.05
2024-05-09T11:15:55.101Z,944.04
2024-05-09T11:16:55.804Z,944.01
2024-05-09T11:17:56.816Z,944.06
2024-05-09T11:18:57.867Z,944.03
2024-05-09T11:19:58.293Z,944.08
2024-05-09T11:20:59.307Z,944.05
2024-05-09T11:21:59.458Z,944.01
2024-05-09T11:23:00.542Z,943.99
2024-05-09T11:24:01.078Z,944.01
2024-05-09T11:25:01.813Z,943.98
2024-05-09T11:26:02.351Z,943.98
2024-05-09T11:27:02.996Z,943.99
2024-05-09T11:28:04.054Z,943.96
2024-05-09T11:29:04.247Z,943.99
2024-05-09T11:30:05.801Z,943.98
2024-05-09T11:31:05.487Z,943.94
2024-05-09T11:32:06.512Z,943.92
2024-05-09T11:33:07.147Z,943.97
2024-05-09T11:34:07.391Z,943.97
2024-05-09T11:35:08.041Z,944.01
2024-05-09T11:36:08.803Z,944.01
2024-05-09T11:37:09.569Z,944.02
2024-05-09T11:38:10.191Z,944
2024-05-09T11:39:11.109Z,943.99
2024-05-09T11:40:16.970Z,944
2024-05-09T11:41:12.619Z,943.95
2024-05-09T11:42:13.135Z,943.92
2024-05-09T11:43:13.451Z,943.93
2024-05-09T11:44:14.263Z,943.99
2024-05-09T11:45:15.215Z,943.98
2024-05-09T11:46:16.275Z,943.96
2024-05-09T11:47:16.661Z,943.94
2024-05-09T11:48:17.322Z,943.92
2024-05-09T11:49:18.402Z,943.93
2024-05-09T11:50:22.365Z,943.93
2024-05-09T11:51:19.612Z,943.92
2024-05-09T11:52:20.564Z,943.87
2024-05-09T11:53:21.596Z,943.87
2024-05-09T11:54:21.779Z,943.89
2024-05-09T11:55:25.607Z,943.87
2024-05-09T11:56:23.315Z,943.87
2024-05-09T11:57:23.827Z,943.76
2024-05-09T11:58:24.511Z,943.77
2024-05-09T11:59:24.618Z,943.85
2024-05-09T12:00:29.304Z,943.82
2024-05-09T12:01:27.753Z,943.81
2024-05-09T12:02:27.041Z,943.83
2024-05-09T12:03:27.572Z,943.8
2024-05-09T12:04:28.227Z,943.8
2024-05-09T12:05:29.271Z,943.78
2024-05-09T12:06:29.586Z,943.78
2024-05-09T12:07:30.476Z,943.74
2024-05-09T12:08:30.669Z,943.73
2024-05-09T12:09:31.685Z,943.69
2024-05-09T12:10:32.984Z,943.71
2024-05-09T12:11:32.276Z,943.7
2024-05-09T12:12:35.416Z,943.7
2024-05-09T12:13:33.411Z,943.66
2024-05-09T12:14:34.346Z,943.64
2024-05-09T12:15:35.060Z,943.69
2024-05-09T12:16:35.328Z,943.67
2024-05-09T12:17:36.383Z,943.67
2024-05-09T12:18:36.585Z,943.69
2024-05-09T12:19:37.235Z,943.65
2024-05-09T12:20:38.780Z,943.65
2024-05-09T12:21:37.843Z,943.62
2024-05-09T12:22:37.968Z,943.67
2024-05-09T12:23:38.940Z,943.66
2024-05-09T12:24:39.928Z,943.67
2024-05-09T12:25:40.646Z,943.64
2024-05-09T12:26:40.773Z,943.63
2024-05-09T12:27:41.754Z,943.63
2024-05-09T12:28:41.977Z,943.66
2024-05-09T12:29:42.381Z,943.62
2024-05-09T12:30:42.603Z,943.64
2024-05-09T12:31:43.142Z,943.64
2024-05-09T12:32:44.164Z,943.64
2024-05-09T12:33:44.798Z,943.62
2024-05-09T12:34:45.319Z,943.6
2024-05-09T12:35:47.305Z,943.58
2024-05-09T12:36:46.924Z,943.61
2024-05-09T12:37:47.879Z,943.59
2024-05-09T12:38:48.354Z,943.6
2024-05-09T12:39:49.372Z,943.58
2024-05-09T12:40:50.410Z,943.57
2024-05-09T12:41:50.973Z,943.6
2024-05-09T12:42:51.634Z,943.64
2024-05-09T12:43:52.595Z,943.58
2024-05-09T12:44:53.516Z,943.57
2024-05-09T12:45:54.154Z,943.58
2024-05-09T12:46:54.547Z,943.58
2024-05-09T12:47:55.442Z,943.55
2024-05-09T12:48:56.382Z,943.56